sensor_id;sensor_type;location;lat;lon;timestamp;P1;durP1;ratioP1;P2;durP2;ratioP2
72813;SDS011;60945;48.516;-2.768;2023-06-14T00:01:46;36.33;;;24.83;;
72813;SDS011;60945;48.516;-2.768;2023-06-14T00:04:14;34.08;;;25.05;;
72813;SDS011;60945;48.516;-2.768;2023-06-14T00:06:42;32.60;;;25.23;;
72813;SDS011;60945;48.516;-2.768;2023-06-14T00:09:10;34.25;;;24.13;;
72813;SDS011;60945;48.516;-2.768;2023-06-14T00:11:37;37.17;;;25.83;;
72813;SDS011;60945;48.516;-2.768;2023-06-14T00:14:03;37.47;;;25.83;;
72813;SDS011;60945;48.516;-2.768;2023-06-14T00:16:29;32.95;;;23.60;;
72813;SDS011;60945;48.516;-2.768;2023-06-14T00:18:55;36.10;;;24.25;;
72813;SDS011;60945;48.516;-2.768;2023-06-14T00:21:21;37.15;;;24.80;;
72813;SDS011;60945;48.516;-2.768;2023-06-14T00:23:46;37.78;;;25.75;;
72813;SDS011;60945;48.516;-2.768;2023-06-14T00:26:12;36.38;;;24.70;;
72813;SDS011;60945;48.516;-2.768;2023-06-14T00:28:38;38.35;;;25.73;;
72813;SDS011;60945;48.516;-2.768;2023-06-14T00:31:03;36.78;;;24.30;;
72813;SDS011;60945;48.516;-2.768;2023-06-14T00:33:29;36.90;;;23.88;;
72813;SDS011;60945;48.516;-2.768;2023-06-14T00:35:58;34.70;;;24.13;;
72813;SDS011;60945;48.516;-2.768;2023-06-14T00:38:23;34.92;;;23.42;;
72813;SDS011;60945;48.516;-2.768;2023-06-14T00:40:49;34.58;;;24.85;;
72813;SDS011;60945;48.516;-2.768;2023-06-14T00:43:15;36.92;;;23.55;;
72813;SDS011;60945;48.516;-2.768;2023-06-14T00:45:40;35.40;;;23.48;;
72813;SDS011;60945;48.516;-2.768;2023-06-14T00:48:06;34.70;;;23.02;;
72813;SDS011;60945;48.516;-2.768;2023-06-14T00:50:34;34.08;;;23.05;;
72813;SDS011;60945;48.516;-2.768;2023-06-14T00:53:00;35.33;;;22.52;;
72813;SDS011;60945;48.516;-2.768;2023-06-14T00:55:27;34.78;;;23.42;;
72813;SDS011;60945;48.516;-2.768;2023-06-14T00:57:54;32.08;;;22.02;;
72813;SDS011;60945;48.516;-2.768;2023-06-14T01:00:20;32.15;;;22.17;;
72813;SDS011;60945;48.516;-2.768;2023-06-14T01:02:46;37.90;;;22.88;;
72813;SDS011;60945;48.516;-2.768;2023-06-14T01:05:11;35.95;;;23.13;;
72813;SDS011;60945;48.516;-2.768;2023-06-14T01:13:19;35.63;;;23.30;;
72813;SDS011;60945;48.516;-2.768;2023-06-14T01:15:51;35.05;;;22.63;;
72813;SDS011;60945;48.516;-2.768;2023-06-14T01:18:17;34.03;;;21.95;;
72813;SDS011;60945;48.516;-2.768;2023-06-14T01:20:44;37.70;;;25.63;;
72813;SDS011;60945;48.516;-2.768;2023-06-14T01:23:14;38.58;;;25.52;;
72813;SDS011;60945;48.516;-2.768;2023-06-14T01:25:41;35.55;;;24.00;;
72813;SDS011;60945;48.516;-2.768;2023-06-14T01:28:09;40.05;;;25.92;;
72813;SDS011;60945;48.516;-2.768;2023-06-14T01:30:40;42.80;;;26.23;;
72813;SDS011;60945;48.516;-2.768;2023-06-14T01:33:10;39.10;;;25.95;;
72813;SDS011;60945;48.516;-2.768;2023-06-14T01:35:42;37.08;;;23.67;;
72813;SDS011;60945;48.516;-2.768;2023-06-14T01:38:09;40.13;;;25.27;;
72813;SDS011;60945;48.516;-2.768;2023-06-14T01:40:35;40.10;;;26.45;;
72813;SDS011;60945;48.516;-2.768;2023-06-14T01:43:03;39.95;;;25.85;;
72813;SDS011;60945;48.516;-2.768;2023-06-14T01:45:29;41.85;;;26.08;;
72813;SDS011;60945;48.516;-2.768;2023-06-14T01:47:56;35.58;;;24.55;;
72813;SDS011;60945;48.516;-2.768;2023-06-14T01:50:22;41.92;;;26.80;;
72813;SDS011;60945;48.516;-2.768;2023-06-14T01:52:48;36.75;;;26.13;;
72813;SDS011;60945;48.516;-2.768;2023-06-14T01:55:13;36.60;;;24.30;;
72813;SDS011;60945;48.516;-2.768;2023-06-14T01:57:40;33.95;;;23.88;;
72813;SDS011;60945;48.516;-2.768;2023-06-14T02:00:06;38.35;;;25.58;;
72813;SDS011;60945;48.516;-2.768;2023-06-14T02:02:35;38.28;;;26.25;;
72813;SDS011;60945;48.516;-2.768;2023-06-14T02:05:01;35.47;;;25.75;;
72813;SDS011;60945;48.516;-2.768;2023-06-14T02:07:26;35.45;;;25.75;;
72813;SDS011;60945;48.516;-2.768;2023-06-14T02:09:52;39.60;;;25.98;;
72813;SDS011;60945;48.516;-2.768;2023-06-14T02:12:18;40.45;;;27.25;;
72813;SDS011;60945;48.516;-2.768;2023-06-14T02:14:43;34.08;;;25.90;;
72813;SDS011;60945;48.516;-2.768;2023-06-14T02:17:09;39.80;;;26.50;;
72813;SDS011;60945;48.516;-2.768;2023-06-14T02:19:35;38.85;;;26.88;;
72813;SDS011;60945;48.516;-2.768;2023-06-14T02:22:01;37.88;;;26.83;;
72813;SDS011;60945;48.516;-2.768;2023-06-14T02:24:26;39.65;;;26.40;;
72813;SDS011;60945;48.516;-2.768;2023-06-14T02:26:52;40.78;;;26.77;;
72813;SDS011;60945;48.516;-2.768;2023-06-14T02:29:18;43.92;;;28.42;;
72813;SDS011;60945;48.516;-2.768;2023-06-14T02:31:43;39.65;;;26.98;;
72813;SDS011;60945;48.516;-2.768;2023-06-14T02:34:11;40.15;;;26.17;;
72813;SDS011;60945;48.516;-2.768;2023-06-14T02:36:37;42.28;;;27.40;;
72813;SDS011;60945;48.516;-2.768;2023-06-14T02:39:07;41.53;;;27.20;;
72813;SDS011;60945;48.516;-2.768;2023-06-14T02:41:34;40.17;;;28.77;;
72813;SDS011;60945;48.516;-2.768;2023-06-14T02:44:00;38.05;;;27.35;;
72813;SDS011;60945;48.516;-2.768;2023-06-14T02:46:25;39.03;;;26.67;;
72813;SDS011;60945;48.516;-2.768;2023-06-14T02:48:51;38.78;;;27.48;;
72813;SDS011;60945;48.516;-2.768;2023-06-14T02:51:17;45.88;;;27.92;;
72813;SDS011;60945;48.516;-2.768;2023-06-14T02:53:42;45.17;;;29.50;;
72813;SDS011;60945;48.516;-2.768;2023-06-14T02:56:08;43.17;;;28.05;;
72813;SDS011;60945;48.516;-2.768;2023-06-14T02:58:36;43.58;;;28.15;;
72813;SDS011;60945;48.516;-2.768;2023-06-14T03:01:02;43.83;;;28.48;;
72813;SDS011;60945;48.516;-2.768;2023-06-14T03:03:28;45.53;;;29.20;;
72813;SDS011;60945;48.516;-2.768;2023-06-14T03:05:54;43.08;;;27.83;;
72813;SDS011;60945;48.516;-2.768;2023-06-14T03:08:20;44.05;;;28.45;;
72813;SDS011;60945;48.516;-2.768;2023-06-14T03:10:52;45.45;;;27.58;;
72813;SDS011;60945;48.516;-2.768;2023-06-14T03:13:18;42.92;;;28.80;;
72813;SDS011;60945;48.516;-2.768;2023-06-14T03:15:47;43.08;;;28.25;;
72813;SDS011;60945;48.516;-2.768;2023-06-14T03:18:15;44.05;;;28.77;;
72813;SDS011;60945;48.516;-2.768;2023-06-14T03:20:41;41.55;;;27.35;;
72813;SDS011;60945;48.516;-2.768;2023-06-14T03:23:10;45.78;;;30.27;;
72813;SDS011;60945;48.516;-2.768;2023-06-14T03:25:37;46.95;;;31.17;;
72813;SDS011;60945;48.516;-2.768;2023-06-14T03:28:04;42.70;;;28.35;;
72813;SDS011;60945;48.516;-2.768;2023-06-14T03:30:33;41.80;;;28.10;;
72813;SDS011;60945;48.516;-2.768;2023-06-14T03:32:58;46.83;;;28.85;;
72813;SDS011;60945;48.516;-2.768;2023-06-14T03:35:26;48.65;;;29.27;;
72813;SDS011;60945;48.516;-2.768;2023-06-14T03:37:53;44.50;;;29.60;;
72813;SDS011;60945;48.516;-2.768;2023-06-14T03:40:20;45.28;;;29.25;;
72813;SDS011;60945;48.516;-2.768;2023-06-14T03:42:46;43.20;;;28.77;;
72813;SDS011;60945;48.516;-2.768;2023-06-14T03:45:12;42.63;;;29.05;;
72813;SDS011;60945;48.516;-2.768;2023-06-14T03:47:38;43.63;;;28.85;;
72813;SDS011;60945;48.516;-2.768;2023-06-14T03:50:04;40.17;;;28.58;;
72813;SDS011;60945;48.516;-2.768;2023-06-14T03:52:30;46.25;;;29.67;;
72813;SDS011;60945;48.516;-2.768;2023-06-14T03:54:56;46.47;;;29.10;;
72813;SDS011;60945;48.516;-2.768;2023-06-14T03:57:22;47.25;;;30.13;;
72813;SDS011;60945;48.516;-2.768;2023-06-14T03:59:49;45.65;;;29.85;;
72813;SDS011;60945;48.516;-2.768;2023-06-14T04:02:14;45.65;;;31.70;;
72813;SDS011;60945;48.516;-2.768;2023-06-14T04:04:41;43.00;;;29.42;;
72813;SDS011;60945;48.516;-2.768;2023-06-14T04:07:13;44.33;;;30.45;;
72813;SDS011;60945;48.516;-2.768;2023-06-14T04:09:44;38.47;;;27.45;;
72813;SDS011;60945;48.516;-2.768;2023-06-14T04:12:10;46.40;;;28.90;;
72813;SDS011;60945;48.516;-2.768;2023-06-14T04:14:41;42.42;;;29.52;;
72813;SDS011;60945;48.516;-2.768;2023-06-14T04:17:10;41.13;;;30.23;;
72813;SDS011;60945;48.516;-2.768;2023-06-14T04:19:36;41.92;;;30.00;;
72813;SDS011;60945;48.516;-2.768;2023-06-14T04:22:02;40.20;;;28.10;;
72813;SDS011;60945;48.516;-2.768;2023-06-14T04:24:28;41.58;;;28.20;;
72813;SDS011;60945;48.516;-2.768;2023-06-14T04:26:57;42.35;;;29.65;;
72813;SDS011;60945;48.516;-2.768;2023-06-14T04:29:23;42.22;;;29.58;;
72813;SDS011;60945;48.516;-2.768;2023-06-14T04:31:51;43.15;;;29.60;;
72813;SDS011;60945;48.516;-2.768;2023-06-14T04:34:19;41.15;;;29.98;;
72813;SDS011;60945;48.516;-2.768;2023-06-14T04:36:46;40.78;;;29.40;;
72813;SDS011;60945;48.516;-2.768;2023-06-14T04:39:21;42.15;;;29.48;;
72813;SDS011;60945;48.516;-2.768;2023-06-14T04:41:47;41.17;;;28.30;;
72813;SDS011;60945;48.516;-2.768;2023-06-14T04:44:18;41.63;;;28.05;;
72813;SDS011;60945;48.516;-2.768;2023-06-14T04:46:45;43.60;;;29.48;;
72813;SDS011;60945;48.516;-2.768;2023-06-14T04:49:20;43.70;;;28.55;;
72813;SDS011;60945;48.516;-2.768;2023-06-14T04:51:45;40.60;;;29.75;;
72813;SDS011;60945;48.516;-2.768;2023-06-14T04:54:12;40.13;;;29.98;;
72813;SDS011;60945;48.516;-2.768;2023-06-14T04:56:40;42.60;;;29.15;;
72813;SDS011;60945;48.516;-2.768;2023-06-14T04:59:11;36.97;;;28.67;;
72813;SDS011;60945;48.516;-2.768;2023-06-14T05:01:37;37.67;;;27.35;;
72813;SDS011;60945;48.516;-2.768;2023-06-14T05:04:03;41.67;;;28.08;;
72813;SDS011;60945;48.516;-2.768;2023-06-14T05:06:29;39.47;;;32.03;;
72813;SDS011;60945;48.516;-2.768;2023-06-14T05:08:56;38.45;;;28.85;;
72813;SDS011;60945;48.516;-2.768;2023-06-14T05:11:22;38.92;;;28.75;;
72813;SDS011;60945;48.516;-2.768;2023-06-14T05:13:51;35.67;;;28.15;;
72813;SDS011;60945;48.516;-2.768;2023-06-14T05:16:17;35.90;;;28.55;;
72813;SDS011;60945;48.516;-2.768;2023-06-14T05:18:44;33.97;;;28.42;;
72813;SDS011;60945;48.516;-2.768;2023-06-14T05:21:11;38.08;;;28.90;;
72813;SDS011;60945;48.516;-2.768;2023-06-14T05:23:36;39.05;;;28.45;;
72813;SDS011;60945;48.516;-2.768;2023-06-14T05:26:02;35.22;;;27.95;;
72813;SDS011;60945;48.516;-2.768;2023-06-14T05:28:29;35.60;;;28.33;;
72813;SDS011;60945;48.516;-2.768;2023-06-14T05:30:56;37.10;;;27.35;;
72813;SDS011;60945;48.516;-2.768;2023-06-14T05:33:22;40.67;;;36.30;;
72813;SDS011;60945;48.516;-2.768;2023-06-14T05:35:47;35.55;;;27.98;;
72813;SDS011;60945;48.516;-2.768;2023-06-14T05:38:13;36.63;;;32.72;;
72813;SDS011;60945;48.516;-2.768;2023-06-14T05:40:39;36.90;;;27.52;;
72813;SDS011;60945;48.516;-2.768;2023-06-14T05:43:05;32.85;;;26.95;;
72813;SDS011;60945;48.516;-2.768;2023-06-14T05:45:31;36.80;;;27.65;;
72813;SDS011;60945;48.516;-2.768;2023-06-14T05:47:56;36.80;;;28.27;;
72813;SDS011;60945;48.516;-2.768;2023-06-14T05:50:22;35.55;;;27.75;;
72813;SDS011;60945;48.516;-2.768;2023-06-14T05:52:47;35.28;;;27.27;;
72813;SDS011;60945;48.516;-2.768;2023-06-14T05:55:16;34.50;;;26.63;;
72813;SDS011;60945;48.516;-2.768;2023-06-14T05:57:42;32.38;;;26.73;;
72813;SDS011;60945;48.516;-2.768;2023-06-14T06:00:07;34.05;;;27.30;;
72813;SDS011;60945;48.516;-2.768;2023-06-14T06:02:39;31.55;;;26.90;;
72813;SDS011;60945;48.516;-2.768;2023-06-14T06:05:06;31.52;;;27.73;;
72813;SDS011;60945;48.516;-2.768;2023-06-14T06:07:32;32.05;;;25.42;;
72813;SDS011;60945;48.516;-2.768;2023-06-14T06:09:57;35.97;;;32.13;;
72813;SDS011;60945;48.516;-2.768;2023-06-14T06:12:25;31.60;;;24.95;;
72813;SDS011;60945;48.516;-2.768;2023-06-14T06:14:51;32.28;;;25.60;;
72813;SDS011;60945;48.516;-2.768;2023-06-14T06:17:16;27.83;;;24.35;;
72813;SDS011;60945;48.516;-2.768;2023-06-14T06:19:42;27.83;;;24.73;;
72813;SDS011;60945;48.516;-2.768;2023-06-14T06:22:11;33.58;;;30.17;;
72813;SDS011;60945;48.516;-2.768;2023-06-14T06:24:36;40.17;;;36.08;;
72813;SDS011;60945;48.516;-2.768;2023-06-14T06:27:02;47.58;;;43.60;;
72813;SDS011;60945;48.516;-2.768;2023-06-14T06:29:28;31.60;;;26.80;;
72813;SDS011;60945;48.516;-2.768;2023-06-14T06:31:53;34.85;;;31.48;;
72813;SDS011;60945;48.516;-2.768;2023-06-14T06:34:21;45.28;;;40.80;;
72813;SDS011;60945;48.516;-2.768;2023-06-14T06:36:47;37.17;;;33.85;;
72813;SDS011;60945;48.516;-2.768;2023-06-14T06:39:12;32.90;;;29.50;;
72813;SDS011;60945;48.516;-2.768;2023-06-14T06:41:40;29.90;;;26.23;;
72813;SDS011;60945;48.516;-2.768;2023-06-14T06:44:06;34.83;;;31.63;;
72813;SDS011;60945;48.516;-2.768;2023-06-14T06:46:32;28.77;;;25.23;;
72813;SDS011;60945;48.516;-2.768;2023-06-14T06:48:59;29.63;;;26.80;;
72813;SDS011;60945;48.516;-2.768;2023-06-14T06:51:25;28.48;;;23.38;;
72813;SDS011;60945;48.516;-2.768;2023-06-14T06:53:54;32.25;;;29.17;;
72813;SDS011;60945;48.516;-2.768;2023-06-14T06:56:20;28.45;;;24.10;;
72813;SDS011;60945;48.516;-2.768;2023-06-14T06:58:48;35.15;;;32.08;;
72813;SDS011;60945;48.516;-2.768;2023-06-14T07:01:15;27.23;;;23.80;;
72813;SDS011;60945;48.516;-2.768;2023-06-14T07:03:41;46.20;;;42.92;;
72813;SDS011;60945;48.516;-2.768;2023-06-14T07:06:07;35.08;;;32.10;;
72813;SDS011;60945;48.516;-2.768;2023-06-14T07:08:33;29.02;;;22.58;;
72813;SDS011;60945;48.516;-2.768;2023-06-14T07:10:59;23.98;;;21.65;;
72813;SDS011;60945;48.516;-2.768;2023-06-14T07:13:25;31.00;;;28.20;;
72813;SDS011;60945;48.516;-2.768;2023-06-14T07:15:53;26.08;;;22.52;;
72813;SDS011;60945;48.516;-2.768;2023-06-14T07:18:20;25.52;;;22.85;;
72813;SDS011;60945;48.516;-2.768;2023-06-14T07:20:46;24.63;;;22.00;;
72813;SDS011;60945;48.516;-2.768;2023-06-14T07:23:12;27.92;;;25.30;;
72813;SDS011;60945;48.516;-2.768;2023-06-14T07:25:38;26.77;;;24.30;;
72813;SDS011;60945;48.516;-2.768;2023-06-14T07:28:04;24.55;;;21.95;;
72813;SDS011;60945;48.516;-2.768;2023-06-14T07:30:29;37.83;;;34.30;;
72813;SDS011;60945;48.516;-2.768;2023-06-14T07:32:55;29.27;;;26.70;;
72813;SDS011;60945;48.516;-2.768;2023-06-14T07:35:21;27.80;;;25.35;;
72813;SDS011;60945;48.516;-2.768;2023-06-14T07:37:47;22.75;;;20.45;;
72813;SDS011;60945;48.516;-2.768;2023-06-14T07:40:14;24.00;;;21.55;;
72813;SDS011;60945;48.516;-2.768;2023-06-14T07:42:41;23.77;;;21.38;;
72813;SDS011;60945;48.516;-2.768;2023-06-14T07:45:07;22.30;;;20.08;;
72813;SDS011;60945;48.516;-2.768;2023-06-14T07:47:33;22.42;;;20.08;;
72813;SDS011;60945;48.516;-2.768;2023-06-14T07:49:59;21.63;;;19.48;;
72813;SDS011;60945;48.516;-2.768;2023-06-14T07:52:24;22.08;;;19.98;;
72813;SDS011;60945;48.516;-2.768;2023-06-14T07:54:50;21.05;;;19.05;;
72813;SDS011;60945;48.516;-2.768;2023-06-14T07:57:16;23.08;;;20.65;;
72813;SDS011;60945;48.516;-2.768;2023-06-14T07:59:42;26.27;;;24.27;;
72813;SDS011;60945;48.516;-2.768;2023-06-14T08:02:07;21.92;;;19.67;;
72813;SDS011;60945;48.516;-2.768;2023-06-14T08:04:33;21.63;;;19.58;;
72813;SDS011;60945;48.516;-2.768;2023-06-14T08:06:59;19.25;;;17.25;;
72813;SDS011;60945;48.516;-2.768;2023-06-14T08:09:25;20.17;;;18.27;;
72813;SDS011;60945;48.516;-2.768;2023-06-14T08:11:54;19.13;;;17.35;;
72813;SDS011;60945;48.516;-2.768;2023-06-14T08:14:21;23.23;;;21.27;;
72813;SDS011;60945;48.516;-2.768;2023-06-14T08:16:47;17.73;;;16.13;;
72813;SDS011;60945;48.516;-2.768;2023-06-14T08:19:13;21.67;;;19.73;;
72813;SDS011;60945;48.516;-2.768;2023-06-14T08:21:38;16.60;;;15.00;;
72813;SDS011;60945;48.516;-2.768;2023-06-14T08:24:05;27.65;;;25.38;;
72813;SDS011;60945;48.516;-2.768;2023-06-14T08:26:37;16.27;;;14.88;;
72813;SDS011;60945;48.516;-2.768;2023-06-14T08:29:03;20.60;;;19.10;;
72813;SDS011;60945;48.516;-2.768;2023-06-14T08:31:29;16.38;;;14.82;;
72813;SDS011;60945;48.516;-2.768;2023-06-14T08:33:56;16.83;;;15.40;;
72813;SDS011;60945;48.516;-2.768;2023-06-14T08:36:22;15.57;;;14.27;;
72813;SDS011;60945;48.516;-2.768;2023-06-14T08:38:48;15.65;;;14.15;;
72813;SDS011;60945;48.516;-2.768;2023-06-14T08:41:14;16.42;;;14.63;;
72813;SDS011;60945;48.516;-2.768;2023-06-14T08:43:47;15.80;;;14.30;;
72813;SDS011;60945;48.516;-2.768;2023-06-14T08:46:13;15.07;;;13.85;;
72813;SDS011;60945;48.516;-2.768;2023-06-14T08:48:44;21.88;;;20.25;;
72813;SDS011;60945;48.516;-2.768;2023-06-14T08:51:15;15.68;;;14.27;;
72813;SDS011;60945;48.516;-2.768;2023-06-14T08:53:44;15.43;;;13.88;;
72813;SDS011;60945;48.516;-2.768;2023-06-14T08:56:10;14.75;;;13.40;;
72813;SDS011;60945;48.516;-2.768;2023-06-14T08:58:40;15.45;;;13.95;;
72813;SDS011;60945;48.516;-2.768;2023-06-14T09:01:10;14.48;;;13.00;;
72813;SDS011;60945;48.516;-2.768;2023-06-14T09:03:40;19.80;;;18.08;;
72813;SDS011;60945;48.516;-2.768;2023-06-14T09:06:06;27.45;;;25.73;;
72813;SDS011;60945;48.516;-2.768;2023-06-14T09:08:34;15.10;;;13.88;;
72813;SDS011;60945;48.516;-2.768;2023-06-14T09:11:01;15.80;;;14.32;;
72813;SDS011;60945;48.516;-2.768;2023-06-14T09:13:27;25.10;;;23.52;;
72813;SDS011;60945;48.516;-2.768;2023-06-14T09:15:52;23.02;;;21.40;;
72813;SDS011;60945;48.516;-2.768;2023-06-14T09:18:18;20.35;;;14.68;;
72813;SDS011;60945;48.516;-2.768;2023-06-14T09:20:47;22.17;;;20.52;;
72813;SDS011;60945;48.516;-2.768;2023-06-14T09:23:13;15.50;;;14.00;;
72813;SDS011;60945;48.516;-2.768;2023-06-14T09:25:46;14.82;;;13.63;;
72813;SDS011;60945;48.516;-2.768;2023-06-14T09:28:11;14.82;;;13.38;;
72813;SDS011;60945;48.516;-2.768;2023-06-14T09:30:37;15.05;;;13.75;;
72813;SDS011;60945;48.516;-2.768;2023-06-14T09:33:04;15.43;;;14.02;;
72813;SDS011;60945;48.516;-2.768;2023-06-14T09:35:35;15.02;;;13.50;;
72813;SDS011;60945;48.516;-2.768;2023-06-14T09:38:01;27.42;;;25.67;;
72813;SDS011;60945;48.516;-2.768;2023-06-14T09:40:27;19.98;;;18.40;;
72813;SDS011;60945;48.516;-2.768;2023-06-14T09:42:53;15.52;;;14.15;;
72813;SDS011;60945;48.516;-2.768;2023-06-14T09:45:20;15.10;;;13.90;;
72813;SDS011;60945;48.516;-2.768;2023-06-14T09:47:48;15.32;;;14.10;;
72813;SDS011;60945;48.516;-2.768;2023-06-14T09:50:14;16.17;;;14.68;;
72813;SDS011;60945;48.516;-2.768;2023-06-14T09:52:41;14.77;;;13.43;;
72813;SDS011;60945;48.516;-2.768;2023-06-14T09:55:13;53.00;;;50.33;;
72813;SDS011;60945;48.516;-2.768;2023-06-14T09:57:41;15.98;;;14.77;;
72813;SDS011;60945;48.516;-2.768;2023-06-14T10:00:11;20.30;;;18.92;;
72813;SDS011;60945;48.516;-2.768;2023-06-14T10:02:39;16.58;;;15.13;;
72813;SDS011;60945;48.516;-2.768;2023-06-14T10:05:08;15.38;;;13.98;;
72813;SDS011;60945;48.516;-2.768;2023-06-14T10:07:40;15.43;;;14.15;;
72813;SDS011;60945;48.516;-2.768;2023-06-14T10:10:13;17.17;;;16.02;;
72813;SDS011;60945;48.516;-2.768;2023-06-14T10:12:39;25.58;;;24.25;;
72813;SDS011;60945;48.516;-2.768;2023-06-14T10:15:05;16.83;;;15.43;;
72813;SDS011;60945;48.516;-2.768;2023-06-14T10:20:17;27.38;;;25.88;;
72813;SDS011;60945;48.516;-2.768;2023-06-14T10:22:51;15.70;;;14.50;;
72813;SDS011;60945;48.516;-2.768;2023-06-14T10:25:38;16.23;;;15.02;;
72813;SDS011;60945;48.516;-2.768;2023-06-14T10:33:49;15.10;;;13.88;;
72813;SDS011;60945;48.516;-2.768;2023-06-14T10:36:25;33.45;;;31.70;;
72813;SDS011;60945;48.516;-2.768;2023-06-14T10:38:59;14.63;;;13.50;;
72813;SDS011;60945;48.516;-2.768;2023-06-14T10:41:51;14.52;;;13.20;;
72813;SDS011;60945;48.516;-2.768;2023-06-14T10:46:47;23.50;;;22.30;;
72813;SDS011;60945;48.516;-2.768;2023-06-14T10:50:03;14.70;;;13.60;;
72813;SDS011;60945;48.516;-2.768;2023-06-14T10:52:13;23.20;;;21.70;;
72813;SDS011;60945;48.516;-2.768;2023-06-14T10:57:51;18.75;;;17.55;;
72813;SDS011;60945;48.516;-2.768;2023-06-14T11:00:24;13.90;;;13.00;;
72813;SDS011;60945;48.516;-2.768;2023-06-14T11:11:16;14.18;;;13.13;;
72813;SDS011;60945;48.516;-2.768;2023-06-14T11:13:44;14.90;;;13.70;;
72813;SDS011;60945;48.516;-2.768;2023-06-14T11:16:14;14.63;;;13.63;;
72813;SDS011;60945;48.516;-2.768;2023-06-14T11:18:41;14.88;;;13.60;;
72813;SDS011;60945;48.516;-2.768;2023-06-14T11:21:08;14.88;;;13.82;;
72813;SDS011;60945;48.516;-2.768;2023-06-14T11:23:35;24.00;;;22.73;;
72813;SDS011;60945;48.516;-2.768;2023-06-14T11:26:01;16.23;;;15.23;;
72813;SDS011;60945;48.516;-2.768;2023-06-14T11:28:36;15.55;;;14.45;;
72813;SDS011;60945;48.516;-2.768;2023-06-14T11:31:04;16.63;;;15.70;;
72813;SDS011;60945;48.516;-2.768;2023-06-14T11:33:30;43.13;;;41.13;;
72813;SDS011;60945;48.516;-2.768;2023-06-14T11:35:55;15.82;;;14.75;;
72813;SDS011;60945;48.516;-2.768;2023-06-14T11:38:21;14.82;;;13.88;;
72813;SDS011;60945;48.516;-2.768;2023-06-14T11:40:47;18.25;;;17.17;;
72813;SDS011;60945;48.516;-2.768;2023-06-14T11:43:12;15.63;;;14.45;;
72813;SDS011;60945;48.516;-2.768;2023-06-14T11:45:39;17.00;;;15.70;;
72813;SDS011;60945;48.516;-2.768;2023-06-14T11:48:06;28.27;;;26.67;;
72813;SDS011;60945;48.516;-2.768;2023-06-14T11:50:31;15.13;;;14.30;;
72813;SDS011;60945;48.516;-2.768;2023-06-14T11:53:01;25.65;;;24.45;;
72813;SDS011;60945;48.516;-2.768;2023-06-14T11:55:35;46.75;;;44.78;;
72813;SDS011;60945;48.516;-2.768;2023-06-14T11:58:02;29.67;;;28.25;;
72813;SDS011;60945;48.516;-2.768;2023-06-14T12:00:28;17.15;;;15.95;;
72813;SDS011;60945;48.516;-2.768;2023-06-14T12:30:34;22.33;;;21.23;;
72813;SDS011;60945;48.516;-2.768;2023-06-14T12:36:30;34.67;;;32.90;;
72813;SDS011;60945;48.516;-2.768;2023-06-14T12:38:56;43.60;;;41.72;;
72813;SDS011;60945;48.516;-2.768;2023-06-14T12:41:31;17.17;;;16.23;;
72813;SDS011;60945;48.516;-2.768;2023-06-14T12:43:57;19.00;;;17.75;;
72813;SDS011;60945;48.516;-2.768;2023-06-14T12:46:24;33.80;;;32.13;;
72813;SDS011;60945;48.516;-2.768;2023-06-14T12:48:50;18.13;;;17.02;;
72813;SDS011;60945;48.516;-2.768;2023-06-14T12:51:16;19.38;;;17.95;;
72813;SDS011;60945;48.516;-2.768;2023-06-14T12:53:42;18.98;;;17.90;;
72813;SDS011;60945;48.516;-2.768;2023-06-14T12:56:09;19.27;;;18.17;;
72813;SDS011;60945;48.516;-2.768;2023-06-14T12:58:34;19.15;;;18.05;;
72813;SDS011;60945;48.516;-2.768;2023-06-14T13:01:00;18.45;;;17.33;;
72813;SDS011;60945;48.516;-2.768;2023-06-14T13:03:25;26.20;;;24.88;;
72813;SDS011;60945;48.516;-2.768;2023-06-14T13:05:51;19.90;;;18.50;;
72813;SDS011;60945;48.516;-2.768;2023-06-14T13:08:17;19.25;;;17.98;;
72813;SDS011;60945;48.516;-2.768;2023-06-14T13:10:43;24.95;;;23.55;;
72813;SDS011;60945;48.516;-2.768;2023-06-14T13:13:08;35.88;;;34.08;;
72813;SDS011;60945;48.516;-2.768;2023-06-14T13:15:36;23.95;;;22.73;;
72813;SDS011;60945;48.516;-2.768;2023-06-14T13:18:01;35.42;;;33.63;;
72813;SDS011;60945;48.516;-2.768;2023-06-14T13:20:28;31.48;;;29.88;;
72813;SDS011;60945;48.516;-2.768;2023-06-14T13:22:53;39.90;;;38.20;;
72813;SDS011;60945;48.516;-2.768;2023-06-14T13:25:30;29.52;;;28.13;;
72813;SDS011;60945;48.516;-2.768;2023-06-14T13:27:57;20.20;;;19.00;;
72813;SDS011;60945;48.516;-2.768;2023-06-14T13:30:22;19.35;;;18.25;;
72813;SDS011;60945;48.516;-2.768;2023-06-14T13:32:48;31.20;;;29.70;;
72813;SDS011;60945;48.516;-2.768;2023-06-14T13:35:14;19.33;;;18.23;;
72813;SDS011;60945;48.516;-2.768;2023-06-14T13:37:39;19.17;;;18.17;;
72813;SDS011;60945;48.516;-2.768;2023-06-14T13:40:05;20.05;;;18.73;;
72813;SDS011;60945;48.516;-2.768;2023-06-14T13:42:31;20.92;;;19.52;;
72813;SDS011;60945;48.516;-2.768;2023-06-14T13:44:58;19.27;;;18.08;;
72813;SDS011;60945;48.516;-2.768;2023-06-14T13:47:23;19.33;;;17.73;;
72813;SDS011;60945;48.516;-2.768;2023-06-14T13:49:52;18.48;;;17.05;;
72813;SDS011;60945;48.516;-2.768;2023-06-14T13:52:17;17.80;;;16.67;;
72813;SDS011;60945;48.516;-2.768;2023-06-14T13:54:43;32.42;;;30.73;;
72813;SDS011;60945;48.516;-2.768;2023-06-14T13:57:09;17.73;;;16.50;;
72813;SDS011;60945;48.516;-2.768;2023-06-14T13:59:37;28.17;;;26.73;;
72813;SDS011;60945;48.516;-2.768;2023-06-14T14:02:06;40.20;;;38.42;;
72813;SDS011;60945;48.516;-2.768;2023-06-14T14:04:33;17.30;;;16.27;;
72813;SDS011;60945;48.516;-2.768;2023-06-14T14:07:02;18.08;;;16.88;;
72813;SDS011;60945;48.516;-2.768;2023-06-14T14:09:29;16.55;;;15.45;;
72813;SDS011;60945;48.516;-2.768;2023-06-14T14:11:55;18.02;;;17.02;;
72813;SDS011;60945;48.516;-2.768;2023-06-14T14:14:21;38.10;;;36.35;;
72813;SDS011;60945;48.516;-2.768;2023-06-14T14:16:50;16.95;;;15.75;;
72813;SDS011;60945;48.516;-2.768;2023-06-14T14:19:16;17.15;;;15.80;;
72813;SDS011;60945;48.516;-2.768;2023-06-14T14:21:44;17.17;;;16.17;;
72813;SDS011;60945;48.516;-2.768;2023-06-14T14:24:10;17.58;;;16.35;;
72813;SDS011;60945;48.516;-2.768;2023-06-14T14:26:36;16.50;;;15.50;;
72813;SDS011;60945;48.516;-2.768;2023-06-14T14:29:01;16.95;;;15.77;;
72813;SDS011;60945;48.516;-2.768;2023-06-14T14:31:27;15.77;;;14.77;;
72813;SDS011;60945;48.516;-2.768;2023-06-14T14:33:53;16.73;;;15.43;;
72813;SDS011;60945;48.516;-2.768;2023-06-14T14:36:19;16.83;;;15.63;;
72813;SDS011;60945;48.516;-2.768;2023-06-14T14:38:45;15.95;;;14.85;;
72813;SDS011;60945;48.516;-2.768;2023-06-14T14:41:12;15.70;;;14.65;;
72813;SDS011;60945;48.516;-2.768;2023-06-14T14:43:37;34.72;;;32.83;;
72813;SDS011;60945;48.516;-2.768;2023-06-14T14:46:03;16.60;;;15.38;;
72813;SDS011;60945;48.516;-2.768;2023-06-14T14:48:29;25.25;;;23.80;;
72813;SDS011;60945;48.516;-2.768;2023-06-14T14:50:55;16.33;;;15.23;;
72813;SDS011;60945;48.516;-2.768;2023-06-14T14:53:20;29.15;;;27.70;;
72813;SDS011;60945;48.516;-2.768;2023-06-14T14:55:46;15.18;;;14.07;;
72813;SDS011;60945;48.516;-2.768;2023-06-14T14:58:12;17.73;;;16.73;;
72813;SDS011;60945;48.516;-2.768;2023-06-14T15:00:41;15.50;;;14.43;;
72813;SDS011;60945;48.516;-2.768;2023-06-14T15:03:07;15.60;;;14.60;;
72813;SDS011;60945;48.516;-2.768;2023-06-14T15:05:33;15.55;;;14.35;;
72813;SDS011;60945;48.516;-2.768;2023-06-14T15:07:58;16.05;;;14.95;;